Aviation Digital Data Service (ADDS)

Output produced by METARs form (1708 UTC 21 September 2019)
found at http://aviationweather.gov/metar/data/
 
KMSY 211653Z 07007KT 10SM FEW023 SCT035 BKN070 BKN250 28/23 A3015 RMK AO2 WSHFT 1612 RAB1558E46 SLP211 CB DSNT S AND SW P0001 T02830233
KMSY 211633Z 10011G20KT 7SM -RA FEW019 BKN035CB BKN085 BKN250 27/23 A3015 RMK AO2 WSHFT 1612 RAB1558 CB N AND S-SW MOV W P0001 T02670233
KMSY 211626Z 11015KT 2 1/2SM RA SCT023 SCT030CB BKN065 BKN250 26/23 A3015 RMK AO2 WSHFT 1612 RAB1558 P0001 T02610228
KMSY 211120Z 2112/2218 VRB04KT P6SM VCSH SCT030 SCT100 BKN250 
     FM211700 10010G21KT P6SM VCTS SCT030CB SCT080 
     FM220000 11007KT P6SM FEW030 SCT050 
     FM220600 13005KT P6SM FEW045 FEW250